sensor_id;sensor_type;location;lat;lon;timestamp;P1;durP1;ratioP1;P2;durP2;ratioP2
33495;SDS011;19836;55.812;37.560;2023-02-24T00:01:44;8.27;;;4.07;;
33495;SDS011;19836;55.812;37.560;2023-02-24T00:04:16;12.60;;;5.95;;
33495;SDS011;19836;55.812;37.560;2023-02-24T00:06:44;12.52;;;6.28;;
33495;SDS011;19836;55.812;37.560;2023-02-24T00:09:12;9.27;;;5.35;;
33495;SDS011;19836;55.812;37.560;2023-02-24T00:11:42;12.23;;;5.68;;
33495;SDS011;19836;55.812;37.560;2023-02-24T00:14:12;11.55;;;4.93;;
33495;SDS011;19836;55.812;37.560;2023-02-24T00:16:41;10.20;;;6.15;;
33495;SDS011;19836;55.812;37.560;2023-02-24T00:20:12;8.15;;;4.03;;
33495;SDS011;19836;55.812;37.560;2023-02-24T00:26:40;10.70;;;4.63;;
33495;SDS011;19836;55.812;37.560;2023-02-24T00:29:11;6.53;;;3.92;;
33495;SDS011;19836;55.812;37.560;2023-02-24T00:31:59;7.55;;;4.18;;
33495;SDS011;19836;55.812;37.560;2023-02-24T00:34:26;11.65;;;5.55;;
33495;SDS011;19836;55.812;37.560;2023-02-24T00:36:55;9.23;;;4.40;;
33495;SDS011;19836;55.812;37.560;2023-02-24T00:39:23;10.48;;;5.63;;
33495;SDS011;19836;55.812;37.560;2023-02-24T00:41:57;4.95;;;3.13;;
33495;SDS011;19836;55.812;37.560;2023-02-24T00:47:02;10.05;;;4.95;;
33495;SDS011;19836;55.812;37.560;2023-02-24T00:49:29;9.85;;;5.78;;
33495;SDS011;19836;55.812;37.560;2023-02-24T00:51:57;7.20;;;4.13;;
33495;SDS011;19836;55.812;37.560;2023-02-24T00:54:24;11.68;;;5.85;;
33495;SDS011;19836;55.812;37.560;2023-02-24T00:56:53;10.20;;;6.25;;
33495;SDS011;19836;55.812;37.560;2023-02-24T00:59:23;8.85;;;5.05;;
33495;SDS011;19836;55.812;37.560;2023-02-24T01:01:50;9.25;;;5.05;;
33495;SDS011;19836;55.812;37.560;2023-02-24T01:04:19;9.10;;;5.13;;
33495;SDS011;19836;55.812;37.560;2023-02-24T01:06:48;8.57;;;4.68;;
33495;SDS011;19836;55.812;37.560;2023-02-24T01:09:17;3.95;;;2.33;;
33495;SDS011;19836;55.812;37.560;2023-02-24T01:11:46;11.27;;;5.70;;
33495;SDS011;19836;55.812;37.560;2023-02-24T01:14:33;7.75;;;3.90;;
33495;SDS011;19836;55.812;37.560;2023-02-24T01:17:02;7.45;;;3.97;;
33495;SDS011;19836;55.812;37.560;2023-02-24T01:19:30;10.07;;;5.00;;
33495;SDS011;19836;55.812;37.560;2023-02-24T01:22:01;11.25;;;5.88;;
33495;SDS011;19836;55.812;37.560;2023-02-24T01:24:34;10.25;;;5.10;;
33495;SDS011;19836;55.812;37.560;2023-02-24T01:27:02;11.38;;;5.95;;
33495;SDS011;19836;55.812;37.560;2023-02-24T01:29:29;10.35;;;5.47;;
33495;SDS011;19836;55.812;37.560;2023-02-24T01:31:56;10.02;;;6.20;;
33495;SDS011;19836;55.812;37.560;2023-02-24T01:34:27;6.50;;;3.70;;
33495;SDS011;19836;55.812;37.560;2023-02-24T01:36:56;6.53;;;3.65;;
33495;SDS011;19836;55.812;37.560;2023-02-24T01:39:23;8.52;;;4.95;;
33495;SDS011;19836;55.812;37.560;2023-02-24T01:41:50;9.68;;;5.05;;
33495;SDS011;19836;55.812;37.560;2023-02-24T01:46:47;7.57;;;4.20;;
33495;SDS011;19836;55.812;37.560;2023-02-24T01:49:21;11.73;;;4.88;;
33495;SDS011;19836;55.812;37.560;2023-02-24T01:54:57;8.55;;;4.47;;
33495;SDS011;19836;55.812;37.560;2023-02-24T01:57:34;11.73;;;4.13;;
33495;SDS011;19836;55.812;37.560;2023-02-24T02:00:06;7.25;;;3.63;;
33495;SDS011;19836;55.812;37.560;2023-02-24T02:02:45;6.82;;;3.38;;
33495;SDS011;19836;55.812;37.560;2023-02-24T02:05:17;7.70;;;3.83;;
33495;SDS011;19836;55.812;37.560;2023-02-24T02:07:43;7.53;;;4.25;;
33495;SDS011;19836;55.812;37.560;2023-02-24T02:10:11;5.85;;;3.08;;
33495;SDS011;19836;55.812;37.560;2023-02-24T02:12:39;9.10;;;5.45;;
33495;SDS011;19836;55.812;37.560;2023-02-24T02:15:10;9.43;;;4.68;;
33495;SDS011;19836;55.812;37.560;2023-02-24T02:20:35;8.73;;;4.22;;
33495;SDS011;19836;55.812;37.560;2023-02-24T02:29:55;5.80;;;2.63;;
33495;SDS011;19836;55.812;37.560;2023-02-24T02:35:56;8.30;;;4.57;;
33495;SDS011;19836;55.812;37.560;2023-02-24T02:41:53;11.40;;;5.82;;
33495;SDS011;19836;55.812;37.560;2023-02-24T02:47:25;10.75;;;5.43;;
33495;SDS011;19836;55.812;37.560;2023-02-24T02:52:50;10.50;;;5.68;;
33495;SDS011;19836;55.812;37.560;2023-02-24T02:55:34;11.70;;;5.65;;
33495;SDS011;19836;55.812;37.560;2023-02-24T02:58:50;7.60;;;3.85;;
33495;SDS011;19836;55.812;37.560;2023-02-24T03:01:23;11.00;;;5.78;;
33495;SDS011;19836;55.812;37.560;2023-02-24T03:03:57;11.57;;;5.00;;
33495;SDS011;19836;55.812;37.560;2023-02-24T03:06:33;9.02;;;5.10;;
33495;SDS011;19836;55.812;37.560;2023-02-24T03:11:45;9.55;;;5.90;;
33495;SDS011;19836;55.812;37.560;2023-02-24T03:14:19;14.15;;;5.72;;
33495;SDS011;19836;55.812;37.560;2023-02-24T03:16:49;10.65;;;5.15;;
33495;SDS011;19836;55.812;37.560;2023-02-24T03:19:19;8.77;;;3.40;;
33495;SDS011;19836;55.812;37.560;2023-02-24T03:21:58;6.97;;;4.10;;
33495;SDS011;19836;55.812;37.560;2023-02-24T03:24:32;8.65;;;5.05;;
33495;SDS011;19836;55.812;37.560;2023-02-24T03:27:04;10.00;;;5.55;;
33495;SDS011;19836;55.812;37.560;2023-02-24T03:32:20;10.40;;;5.90;;
33495;SDS011;19836;55.812;37.560;2023-02-24T03:37:33;7.90;;;5.05;;
33495;SDS011;19836;55.812;37.560;2023-02-24T03:40:03;8.75;;;5.30;;
33495;SDS011;19836;55.812;37.560;2023-02-24T03:42:35;9.40;;;5.35;;
33495;SDS011;19836;55.812;37.560;2023-02-24T03:45:08;9.27;;;5.10;;
33495;SDS011;19836;55.812;37.560;2023-02-24T03:47:35;7.85;;;3.58;;
33495;SDS011;19836;55.812;37.560;2023-02-24T03:50:09;7.90;;;4.70;;
33495;SDS011;19836;55.812;37.560;2023-02-24T03:52:47;7.13;;;3.90;;
33495;SDS011;19836;55.812;37.560;2023-02-24T04:06:34;7.88;;;3.63;;
33495;SDS011;19836;55.812;37.560;2023-02-24T04:09:25;6.50;;;3.70;;
33495;SDS011;19836;55.812;37.560;2023-02-24T04:18:15;9.52;;;5.20;;
33495;SDS011;19836;55.812;37.560;2023-02-24T04:20:53;6.90;;;3.08;;
33495;SDS011;19836;55.812;37.560;2023-02-24T04:24:23;10.93;;;5.20;;
33495;SDS011;19836;55.812;37.560;2023-02-24T04:27:04;8.57;;;5.35;;
33495;SDS011;19836;55.812;37.560;2023-02-24T04:29:44;8.10;;;4.43;;
33495;SDS011;19836;55.812;37.560;2023-02-24T04:32:22;8.10;;;4.38;;
33495;SDS011;19836;55.812;37.560;2023-02-24T04:39:30;7.70;;;3.80;;
33495;SDS011;19836;55.812;37.560;2023-02-24T04:47:42;10.30;;;5.47;;
33495;SDS011;19836;55.812;37.560;2023-02-24T04:52:13;11.05;;;6.40;;
33495;SDS011;19836;55.812;37.560;2023-02-24T05:01:05;14.68;;;6.53;;
33495;SDS011;19836;55.812;37.560;2023-02-24T05:04:05;8.77;;;4.13;;
33495;SDS011;19836;55.812;37.560;2023-02-24T05:06:44;8.40;;;5.07;;
33495;SDS011;19836;55.812;37.560;2023-02-24T05:09:14;7.32;;;4.90;;
33495;SDS011;19836;55.812;37.560;2023-02-24T05:11:51;11.43;;;6.55;;
33495;SDS011;19836;55.812;37.560;2023-02-24T05:15:28;8.55;;;4.40;;
33495;SDS011;19836;55.812;37.560;2023-02-24T05:18:01;10.23;;;4.97;;
33495;SDS011;19836;55.812;37.560;2023-02-24T05:20:35;11.45;;;5.18;;
33495;SDS011;19836;55.812;37.560;2023-02-24T05:23:28;11.25;;;5.00;;
33495;SDS011;19836;55.812;37.560;2023-02-24T05:25:57;10.73;;;5.78;;
33495;SDS011;19836;55.812;37.560;2023-02-24T05:28:26;11.63;;;5.90;;
33495;SDS011;19836;55.812;37.560;2023-02-24T05:31:27;12.35;;;6.20;;
33495;SDS011;19836;55.812;37.560;2023-02-24T05:33:55;10.90;;;6.00;;
33495;SDS011;19836;55.812;37.560;2023-02-24T05:36:57;8.43;;;4.97;;
33495;SDS011;19836;55.812;37.560;2023-02-24T05:40:05;9.65;;;5.57;;
33495;SDS011;19836;55.812;37.560;2023-02-24T05:42:34;10.95;;;6.10;;
33495;SDS011;19836;55.812;37.560;2023-02-24T05:48:50;13.13;;;5.38;;
33495;SDS011;19836;55.812;37.560;2023-02-24T05:51:16;10.13;;;5.40;;
33495;SDS011;19836;55.812;37.560;2023-02-24T05:53:42;7.35;;;3.55;;
33495;SDS011;19836;55.812;37.560;2023-02-24T05:56:08;9.05;;;5.10;;
33495;SDS011;19836;55.812;37.560;2023-02-24T05:58:38;12.35;;;5.97;;
33495;SDS011;19836;55.812;37.560;2023-02-24T06:16:29;9.95;;;4.32;;
33495;SDS011;19836;55.812;37.560;2023-02-24T06:32:18;13.73;;;6.43;;
33495;SDS011;19836;55.812;37.560;2023-02-24T06:58:31;11.45;;;7.15;;
33495;SDS011;19836;55.812;37.560;2023-02-24T07:00:59;11.55;;;6.57;;
33495;SDS011;19836;55.812;37.560;2023-02-24T07:04:05;16.45;;;6.10;;
33495;SDS011;19836;55.812;37.560;2023-02-24T07:09:30;10.27;;;6.05;;
33495;SDS011;19836;55.812;37.560;2023-02-24T07:15:59;8.23;;;4.78;;
33495;SDS011;19836;55.812;37.560;2023-02-24T07:18:54;10.68;;;5.93;;
33495;SDS011;19836;55.812;37.560;2023-02-24T07:35:21;13.23;;;6.40;;
33495;SDS011;19836;55.812;37.560;2023-02-24T07:37:53;14.15;;;8.55;;
33495;SDS011;19836;55.812;37.560;2023-02-24T08:01:19;12.82;;;7.30;;
33495;SDS011;19836;55.812;37.560;2023-02-24T08:05:46;8.93;;;4.68;;
33495;SDS011;19836;55.812;37.560;2023-02-24T08:09:16;14.82;;;7.80;;
33495;SDS011;19836;55.812;37.560;2023-02-24T08:11:49;11.48;;;6.95;;
33495;SDS011;19836;55.812;37.560;2023-02-24T08:14:20;14.75;;;7.55;;
33495;SDS011;19836;55.812;37.560;2023-02-24T08:16:55;14.52;;;8.40;;
33495;SDS011;19836;55.812;37.560;2023-02-24T08:19:31;9.02;;;4.47;;
33495;SDS011;19836;55.812;37.560;2023-02-24T08:22:09;16.55;;;8.68;;
33495;SDS011;19836;55.812;37.560;2023-02-24T08:24:46;13.45;;;8.45;;
33495;SDS011;19836;55.812;37.560;2023-02-24T08:27:58;12.95;;;7.40;;
33495;SDS011;19836;55.812;37.560;2023-02-24T08:30:30;9.15;;;4.82;;
33495;SDS011;19836;55.812;37.560;2023-02-24T08:33:03;13.23;;;8.40;;
33495;SDS011;19836;55.812;37.560;2023-02-24T08:35:33;13.57;;;7.78;;
33495;SDS011;19836;55.812;37.560;2023-02-24T08:38:05;13.63;;;7.63;;
33495;SDS011;19836;55.812;37.560;2023-02-24T08:41:13;18.05;;;8.23;;
33495;SDS011;19836;55.812;37.560;2023-02-24T08:43:42;11.43;;;6.18;;
33495;SDS011;19836;55.812;37.560;2023-02-24T08:48:43;15.32;;;9.05;;
33495;SDS011;19836;55.812;37.560;2023-02-24T08:51:33;13.27;;;7.47;;
33495;SDS011;19836;55.812;37.560;2023-02-24T08:54:07;14.40;;;8.25;;
33495;SDS011;19836;55.812;37.560;2023-02-24T08:56:43;15.68;;;8.60;;
33495;SDS011;19836;55.812;37.560;2023-02-24T08:59:14;15.82;;;7.70;;
33495;SDS011;19836;55.812;37.560;2023-02-24T09:02:06;13.82;;;6.47;;
33495;SDS011;19836;55.812;37.560;2023-02-24T09:05:00;17.55;;;9.35;;
33495;SDS011;19836;55.812;37.560;2023-02-24T09:07:59;11.40;;;6.63;;
33495;SDS011;19836;55.812;37.560;2023-02-24T09:10:52;9.60;;;5.15;;
33495;SDS011;19836;55.812;37.560;2023-02-24T09:13:18;14.95;;;8.52;;
33495;SDS011;19836;55.812;37.560;2023-02-24T09:15:44;12.43;;;6.28;;
33495;SDS011;19836;55.812;37.560;2023-02-24T09:18:14;11.20;;;6.95;;
33495;SDS011;19836;55.812;37.560;2023-02-24T09:20:40;14.98;;;6.88;;
33495;SDS011;19836;55.812;37.560;2023-02-24T09:23:21;16.83;;;8.93;;
33495;SDS011;19836;55.812;37.560;2023-02-24T09:26:19;14.23;;;7.40;;
33495;SDS011;19836;55.812;37.560;2023-02-24T09:28:46;16.80;;;8.57;;
33495;SDS011;19836;55.812;37.560;2023-02-24T09:31:20;15.57;;;9.50;;
33495;SDS011;19836;55.812;37.560;2023-02-24T09:34:07;17.63;;;9.40;;
33495;SDS011;19836;55.812;37.560;2023-02-24T09:36:43;13.68;;;6.03;;
33495;SDS011;19836;55.812;37.560;2023-02-24T09:39:34;11.88;;;7.53;;
33495;SDS011;19836;55.812;37.560;2023-02-24T09:45:22;11.27;;;5.88;;
33495;SDS011;19836;55.812;37.560;2023-02-24T09:47:58;16.83;;;9.30;;
33495;SDS011;19836;55.812;37.560;2023-02-24T09:50:37;18.42;;;9.80;;
33495;SDS011;19836;55.812;37.560;2023-02-24T09:53:29;14.82;;;8.95;;
33495;SDS011;19836;55.812;37.560;2023-02-24T09:56:10;12.43;;;6.40;;
33495;SDS011;19836;55.812;37.560;2023-02-24T10:08:49;16.13;;;9.48;;
33495;SDS011;19836;55.812;37.560;2023-02-24T10:11:37;17.73;;;9.32;;
33495;SDS011;19836;55.812;37.560;2023-02-24T10:14:05;14.95;;;9.02;;
33495;SDS011;19836;55.812;37.560;2023-02-24T10:16:35;17.00;;;9.85;;
33495;SDS011;19836;55.812;37.560;2023-02-24T10:22:53;13.23;;;7.80;;
33495;SDS011;19836;55.812;37.560;2023-02-24T10:35:59;16.40;;;8.07;;
33495;SDS011;19836;55.812;37.560;2023-02-24T10:38:29;18.80;;;10.32;;
33495;SDS011;19836;55.812;37.560;2023-02-24T10:40:58;11.85;;;6.57;;
33495;SDS011;19836;55.812;37.560;2023-02-24T10:43:31;14.65;;;8.95;;
33495;SDS011;19836;55.812;37.560;2023-02-24T10:46:23;15.85;;;9.45;;
33495;SDS011;19836;55.812;37.560;2023-02-24T10:51:50;16.00;;;9.48;;
33495;SDS011;19836;55.812;37.560;2023-02-24T10:57:55;15.57;;;9.40;;
33495;SDS011;19836;55.812;37.560;2023-02-24T11:21:11;14.30;;;8.60;;
33495;SDS011;19836;55.812;37.560;2023-02-24T11:30:49;13.60;;;8.90;;
33495;SDS011;19836;55.812;37.560;2023-02-24T12:02:10;19.73;;;10.93;;
33495;SDS011;19836;55.812;37.560;2023-02-24T12:08:50;18.35;;;9.70;;
33495;SDS011;19836;55.812;37.560;2023-02-24T12:11:32;18.92;;;10.73;;
33495;SDS011;19836;55.812;37.560;2023-02-24T12:14:33;25.30;;;10.93;;
33495;SDS011;19836;55.812;37.560;2023-02-24T12:20:20;11.57;;;6.40;;
33495;SDS011;19836;55.812;37.560;2023-02-24T12:59:31;18.20;;;10.48;;
33495;SDS011;19836;55.812;37.560;2023-02-24T15:08:48;21.63;;;11.73;;
33495;SDS011;19836;55.812;37.560;2023-02-24T16:58:44;22.45;;;12.18;;
33495;SDS011;19836;55.812;37.560;2023-02-24T21:12:28;20.73;;;12.23;;
33495;SDS011;19836;55.812;37.560;2023-02-24T21:14:54;15.10;;;9.77;;
33495;SDS011;19836;55.812;37.560;2023-02-24T21:17:20;15.02;;;9.30;;
33495;SDS011;19836;55.812;37.560;2023-02-24T21:19:46;24.02;;;12.93;;
33495;SDS011;19836;55.812;37.560;2023-02-24T21:22:12;15.32;;;10.43;;
33495;SDS011;19836;55.812;37.560;2023-02-24T21:24:37;18.15;;;11.05;;
33495;SDS011;19836;55.812;37.560;2023-02-24T21:27:03;23.35;;;12.88;;
33495;SDS011;19836;55.812;37.560;2023-02-24T21:29:29;17.88;;;9.90;;
33495;SDS011;19836;55.812;37.560;2023-02-24T21:31:55;14.43;;;9.38;;
33495;SDS011;19836;55.812;37.560;2023-02-24T21:34:22;17.50;;;10.07;;
33495;SDS011;19836;55.812;37.560;2023-02-24T21:36:48;13.50;;;9.40;;
33495;SDS011;19836;55.812;37.560;2023-02-24T21:39:14;16.45;;;10.88;;
33495;SDS011;19836;55.812;37.560;2023-02-24T21:41:40;24.58;;;12.82;;
33495;SDS011;19836;55.812;37.560;2023-02-24T21:44:08;15.45;;;9.93;;
33495;SDS011;19836;55.812;37.560;2023-02-24T21:46:36;14.18;;;9.73;;
33495;SDS011;19836;55.812;37.560;2023-02-24T21:49:02;13.88;;;9.20;;
33495;SDS011;19836;55.812;37.560;2023-02-24T21:51:28;17.33;;;10.63;;
33495;SDS011;19836;55.812;37.560;2023-02-24T21:53:55;17.42;;;10.20;;
33495;SDS011;19836;55.812;37.560;2023-02-24T21:56:22;14.23;;;9.88;;
33495;SDS011;19836;55.812;37.560;2023-02-24T21:58:51;17.35;;;10.98;;
33495;SDS011;19836;55.812;37.560;2023-02-24T22:01:32;19.23;;;9.77;;
33495;SDS011;19836;55.812;37.560;2023-02-24T22:04:09;13.50;;;10.20;;
33495;SDS011;19836;55.812;37.560;2023-02-24T22:06:38;14.18;;;9.38;;
33495;SDS011;19836;55.812;37.560;2023-02-24T22:09:06;19.50;;;11.52;;
33495;SDS011;19836;55.812;37.560;2023-02-24T22:11:34;13.15;;;6.85;;
33495;SDS011;19836;55.812;37.560;2023-02-24T22:14:01;13.98;;;9.32;;
33495;SDS011;19836;55.812;37.560;2023-02-24T22:16:28;16.88;;;10.02;;
33495;SDS011;19836;55.812;37.560;2023-02-24T22:18:54;14.52;;;8.38;;
33495;SDS011;19836;55.812;37.560;2023-02-24T22:21:21;16.65;;;10.18;;
33495;SDS011;19836;55.812;37.560;2023-02-24T22:23:49;15.15;;;10.65;;
33495;SDS011;19836;55.812;37.560;2023-02-24T22:26:17;16.92;;;10.27;;
33495;SDS011;19836;55.812;37.560;2023-02-24T22:28:45;12.02;;;9.32;;
33495;SDS011;19836;55.812;37.560;2023-02-24T22:31:12;15.52;;;10.02;;
33495;SDS011;19836;55.812;37.560;2023-02-24T22:33:40;12.90;;;9.07;;
33495;SDS011;19836;55.812;37.560;2023-02-24T22:36:09;14.30;;;9.40;;
33495;SDS011;19836;55.812;37.560;2023-02-24T22:38:40;14.13;;;9.50;;
33495;SDS011;19836;55.812;37.560;2023-02-24T22:41:09;16.48;;;10.40;;
33495;SDS011;19836;55.812;37.560;2023-02-24T22:43:37;14.25;;;10.25;;
33495;SDS011;19836;55.812;37.560;2023-02-24T22:46:04;13.52;;;9.85;;
33495;SDS011;19836;55.812;37.560;2023-02-24T22:48:32;15.52;;;10.57;;
33495;SDS011;19836;55.812;37.560;2023-02-24T22:50:59;17.55;;;10.15;;
33495;SDS011;19836;55.812;37.560;2023-02-24T22:53:27;13.98;;;10.18;;
33495;SDS011;19836;55.812;37.560;2023-02-24T22:55:54;15.63;;;9.65;;
33495;SDS011;19836;55.812;37.560;2023-02-24T22:58:21;15.82;;;10.63;;
33495;SDS011;19836;55.812;37.560;2023-02-24T23:00:48;14.80;;;10.20;;
33495;SDS011;19836;55.812;37.560;2023-02-24T23:03:17;15.30;;;9.38;;
33495;SDS011;19836;55.812;37.560;2023-02-24T23:05:58;15.48;;;9.88;;
33495;SDS011;19836;55.812;37.560;2023-02-24T23:08:36;14.13;;;10.57;;
33495;SDS011;19836;55.812;37.560;2023-02-24T23:11:04;14.70;;;10.15;;
33495;SDS011;19836;55.812;37.560;2023-02-24T23:13:38;17.00;;;10.50;;
33495;SDS011;19836;55.812;37.560;2023-02-24T23:16:06;16.85;;;10.52;;
33495;SDS011;19836;55.812;37.560;2023-02-24T23:18:34;16.25;;;10.65;;
33495;SDS011;19836;55.812;37.560;2023-02-24T23:21:03;15.00;;;10.52;;
33495;SDS011;19836;55.812;37.560;2023-02-24T23:23:31;16.08;;;9.65;;
33495;SDS011;19836;55.812;37.560;2023-02-24T23:26:01;18.98;;;10.80;;
33495;SDS011;19836;55.812;37.560;2023-02-24T23:28:27;14.68;;;10.02;;
33495;SDS011;19836;55.812;37.560;2023-02-24T23:30:53;16.50;;;10.07;;
33495;SDS011;19836;55.812;37.560;2023-02-24T23:33:20;16.67;;;11.15;;
33495;SDS011;19836;55.812;37.560;2023-02-24T23:35:46;15.63;;;10.75;;
33495;SDS011;19836;55.812;37.560;2023-02-24T23:38:13;15.48;;;10.68;;
33495;SDS011;19836;55.812;37.560;2023-02-24T23:40:40;16.02;;;10.68;;
33495;SDS011;19836;55.812;37.560;2023-02-24T23:43:08;15.25;;;10.32;;
33495;SDS011;19836;55.812;37.560;2023-02-24T23:45:38;16.50;;;9.80;;
33495;SDS011;19836;55.812;37.560;2023-02-24T23:48:06;13.63;;;9.88;;
33495;SDS011;19836;55.812;37.560;2023-02-24T23:50:36;13.88;;;9.75;;
33495;SDS011;19836;55.812;37.560;2023-02-24T23:53:03;14.55;;;10.30;;
33495;SDS011;19836;55.812;37.560;2023-02-24T23:55:29;15.65;;;10.38;;
33495;SDS011;19836;55.812;37.560;2023-02-24T23:57:58;13.77;;;10.38;;
